sensor_id;sensor_type;location;lat;lon;timestamp;temperature;humidity
975;DHT22;6115;49.296;10.602;2022-09-13T00:04:40;12.50;76.40
975;DHT22;6115;49.296;10.602;2022-09-13T00:09:40;12.40;76.40
975;DHT22;6115;49.296;10.602;2022-09-13T00:14:41;12.40;76.40
975;DHT22;6115;49.296;10.602;2022-09-13T00:19:41;12.40;76.40
975;DHT22;6115;49.296;10.602;2022-09-13T00:24:42;12.40;76.70
975;DHT22;6115;49.296;10.602;2022-09-13T00:29:45;12.40;76.80
975;DHT22;6115;49.296;10.602;2022-09-13T00:34:46;12.30;76.60
975;DHT22;6115;49.296;10.602;2022-09-13T00:39:46;12.30;76.80
975;DHT22;6115;49.296;10.602;2022-09-13T00:45:00;12.20;76.90
975;DHT22;6115;49.296;10.602;2022-09-13T00:50:30;12.20;76.80
975;DHT22;6115;49.296;10.602;2022-09-13T00:55:36;12.20;76.90
975;DHT22;6115;49.296;10.602;2022-09-13T01:00:39;12.10;77.00
975;DHT22;6115;49.296;10.602;2022-09-13T01:05:49;12.00;77.30
975;DHT22;6115;49.296;10.602;2022-09-13T01:10:52;12.00;77.00
975;DHT22;6115;49.296;10.602;2022-09-13T01:15:53;12.00;76.80
975;DHT22;6115;49.296;10.602;2022-09-13T01:26:30;11.90;77.00
975;DHT22;6115;49.296;10.602;2022-09-13T01:37:06;11.90;76.40
975;DHT22;6115;49.296;10.602;2022-09-13T01:42:19;11.80;75.80
975;DHT22;6115;49.296;10.602;2022-09-13T01:47:30;11.80;76.10
975;DHT22;6115;49.296;10.602;2022-09-13T01:52:44;11.80;75.80
975;DHT22;6115;49.296;10.602;2022-09-13T02:03:16;11.80;76.30
975;DHT22;6115;49.296;10.602;2022-09-13T02:08:25;11.70;76.30
975;DHT22;6115;49.296;10.602;2022-09-13T02:13:36;11.70;76.10
975;DHT22;6115;49.296;10.602;2022-09-13T02:18:40;11.60;76.40
975;DHT22;6115;49.296;10.602;2022-09-13T02:24:02;11.50;76.60
975;DHT22;6115;49.296;10.602;2022-09-13T02:29:09;11.50;76.80
975;DHT22;6115;49.296;10.602;2022-09-13T02:34:31;11.50;76.70
975;DHT22;6115;49.296;10.602;2022-09-13T02:39:36;11.40;76.50
975;DHT22;6115;49.296;10.602;2022-09-13T02:44:46;11.30;76.60
975;DHT22;6115;49.296;10.602;2022-09-13T02:55:51;11.20;77.30
975;DHT22;6115;49.296;10.602;2022-09-13T03:00:32;11.30;77.40
975;DHT22;6115;49.296;10.602;2022-09-13T03:05:33;11.20;77.10
975;DHT22;6115;49.296;10.602;2022-09-13T03:32:22;11.20;76.90
975;DHT22;6115;49.296;10.602;2022-09-13T03:37:41;11.20;76.90
975;DHT22;6115;49.296;10.602;2022-09-13T03:42:51;11.20;76.70
975;DHT22;6115;49.296;10.602;2022-09-13T03:47:52;11.10;76.80
975;DHT22;6115;49.296;10.602;2022-09-13T03:52:59;11.10;77.10
975;DHT22;6115;49.296;10.602;2022-09-13T03:58:00;11.00;77.60
975;DHT22;6115;49.296;10.602;2022-09-13T04:03:01;11.00;77.90
975;DHT22;6115;49.296;10.602;2022-09-13T04:08:02;11.00;77.80
975;DHT22;6115;49.296;10.602;2022-09-13T04:13:05;11.00;77.70
975;DHT22;6115;49.296;10.602;2022-09-13T04:18:05;11.00;77.60
975;DHT22;6115;49.296;10.602;2022-09-13T04:23:06;10.90;77.40
975;DHT22;6115;49.296;10.602;2022-09-13T04:28:06;10.90;77.50
975;DHT22;6115;49.296;10.602;2022-09-13T04:33:07;10.90;77.40
975;DHT22;6115;49.296;10.602;2022-09-13T04:38:08;10.90;77.60
975;DHT22;6115;49.296;10.602;2022-09-13T04:43:08;10.90;77.60
975;DHT22;6115;49.296;10.602;2022-09-13T04:48:09;10.90;77.60
975;DHT22;6115;49.296;10.602;2022-09-13T04:53:13;10.90;77.60
975;DHT22;6115;49.296;10.602;2022-09-13T04:58:13;10.80;77.80
975;DHT22;6115;49.296;10.602;2022-09-13T05:03:14;10.80;78.90
975;DHT22;6115;49.296;10.602;2022-09-13T05:08:14;10.80;78.30
975;DHT22;6115;49.296;10.602;2022-09-13T05:13:15;10.90;78.20
975;DHT22;6115;49.296;10.602;2022-09-13T05:18:15;10.90;78.10
975;DHT22;6115;49.296;10.602;2022-09-13T05:23:16;10.90;78.10
975;DHT22;6115;49.296;10.602;2022-09-13T05:28:16;11.00;78.30
975;DHT22;6115;49.296;10.602;2022-09-13T05:33:17;11.00;78.30
975;DHT22;6115;49.296;10.602;2022-09-13T05:38:17;11.10;78.50
975;DHT22;6115;49.296;10.602;2022-09-13T05:43:18;11.10;78.90
975;DHT22;6115;49.296;10.602;2022-09-13T05:48:18;11.30;79.30
975;DHT22;6115;49.296;10.602;2022-09-13T05:53:19;11.60;79.50
975;DHT22;6115;49.296;10.602;2022-09-13T05:58:19;11.80;79.40
975;DHT22;6115;49.296;10.602;2022-09-13T06:03:21;12.10;79.30
975;DHT22;6115;49.296;10.602;2022-09-13T06:08:23;12.30;79.30
975;DHT22;6115;49.296;10.602;2022-09-13T06:13:24;12.50;79.20
975;DHT22;6115;49.296;10.602;2022-09-13T06:18:25;12.70;78.90
975;DHT22;6115;49.296;10.602;2022-09-13T06:23:27;13.00;78.90
975;DHT22;6115;49.296;10.602;2022-09-13T06:28:27;13.20;78.90
975;DHT22;6115;49.296;10.602;2022-09-13T06:33:28;13.40;78.90
975;DHT22;6115;49.296;10.602;2022-09-13T06:38:29;13.60;78.70
975;DHT22;6115;49.296;10.602;2022-09-13T06:43:29;13.90;78.20
975;DHT22;6115;49.296;10.602;2022-09-13T06:48:31;14.20;78.20
975;DHT22;6115;49.296;10.602;2022-09-13T06:53:33;14.40;77.90
975;DHT22;6115;49.296;10.602;2022-09-13T06:58:36;14.60;77.40
975;DHT22;6115;49.296;10.602;2022-09-13T07:04:05;14.80;76.80
975;DHT22;6115;49.296;10.602;2022-09-13T07:09:07;15.10;76.80
975;DHT22;6115;49.296;10.602;2022-09-13T07:14:16;15.30;76.40
975;DHT22;6115;49.296;10.602;2022-09-13T07:19:19;15.60;76.40
975;DHT22;6115;49.296;10.602;2022-09-13T07:24:22;16.00;75.10
975;DHT22;6115;49.296;10.602;2022-09-13T07:29:23;16.40;73.50
975;DHT22;6115;49.296;10.602;2022-09-13T07:34:25;16.60;71.90
975;DHT22;6115;49.296;10.602;2022-09-13T07:39:25;16.70;70.80
975;DHT22;6115;49.296;10.602;2022-09-13T07:44:26;16.90;70.00
975;DHT22;6115;49.296;10.602;2022-09-13T07:49:26;17.20;69.30
975;DHT22;6115;49.296;10.602;2022-09-13T07:54:27;17.40;66.70
975;DHT22;6115;49.296;10.602;2022-09-13T07:59:27;17.70;66.90
975;DHT22;6115;49.296;10.602;2022-09-13T08:04:28;18.00;66.20
975;DHT22;6115;49.296;10.602;2022-09-13T08:09:28;18.10;65.20
975;DHT22;6115;49.296;10.602;2022-09-13T08:14:29;18.20;64.50
975;DHT22;6115;49.296;10.602;2022-09-13T08:19:29;18.50;63.70
975;DHT22;6115;49.296;10.602;2022-09-13T08:24:30;18.80;62.90
975;DHT22;6115;49.296;10.602;2022-09-13T08:29:30;19.10;63.20
975;DHT22;6115;49.296;10.602;2022-09-13T08:34:31;19.30;62.40
975;DHT22;6115;49.296;10.602;2022-09-13T08:39:32;19.70;59.90
975;DHT22;6115;49.296;10.602;2022-09-13T08:44:44;20.10;59.20
975;DHT22;6115;49.296;10.602;2022-09-13T08:49:48;20.00;58.60
975;DHT22;6115;49.296;10.602;2022-09-13T08:54:49;20.40;58.30
975;DHT22;6115;49.296;10.602;2022-09-13T09:00:19;20.50;57.40
975;DHT22;6115;49.296;10.602;2022-09-13T09:05:28;21.00;56.90
975;DHT22;6115;49.296;10.602;2022-09-13T09:10:36;21.20;55.60
975;DHT22;6115;49.296;10.602;2022-09-13T09:15:54;21.50;55.80
975;DHT22;6115;49.296;10.602;2022-09-13T09:20:57;21.90;54.60
975;DHT22;6115;49.296;10.602;2022-09-13T09:26:20;22.00;53.20
975;DHT22;6115;49.296;10.602;2022-09-13T09:36:44;22.20;52.60
975;DHT22;6115;49.296;10.602;2022-09-13T09:41:48;22.40;52.30
975;DHT22;6115;49.296;10.602;2022-09-13T09:46:55;22.60;51.50
975;DHT22;6115;49.296;10.602;2022-09-13T09:51:57;22.70;50.80
975;DHT22;6115;49.296;10.602;2022-09-13T09:56:58;23.20;50.60
975;DHT22;6115;49.296;10.602;2022-09-13T10:02:00;23.40;48.30
975;DHT22;6115;49.296;10.602;2022-09-13T10:07:10;23.40;48.30
975;DHT22;6115;49.296;10.602;2022-09-13T10:12:26;23.50;49.40
975;DHT22;6115;49.296;10.602;2022-09-13T10:17:27;23.50;50.60
975;DHT22;6115;49.296;10.602;2022-09-13T10:22:30;23.50;50.20
975;DHT22;6115;49.296;10.602;2022-09-13T10:27:35;23.20;51.60
975;DHT22;6115;49.296;10.602;2022-09-13T10:32:37;23.30;51.70
975;DHT22;6115;49.296;10.602;2022-09-13T10:37:41;23.40;51.50
975;DHT22;6115;49.296;10.602;2022-09-13T10:42:54;23.50;51.20
975;DHT22;6115;49.296;10.602;2022-09-13T10:48:05;23.40;51.30
975;DHT22;6115;49.296;10.602;2022-09-13T10:53:34;23.70;51.60
975;DHT22;6115;49.296;10.602;2022-09-13T10:58:35;23.90;47.30
975;DHT22;6115;49.296;10.602;2022-09-13T11:04:00;24.10;47.50
975;DHT22;6115;49.296;10.602;2022-09-13T11:09:37;24.00;47.20
975;DHT22;6115;49.296;10.602;2022-09-13T11:14:58;23.90;46.40
975;DHT22;6115;49.296;10.602;2022-09-13T11:36:32;23.00;52.60
975;DHT22;6115;49.296;10.602;2022-09-13T11:47:47;23.00;52.60
975;DHT22;6115;49.296;10.602;2022-09-13T11:54:11;23.00;53.70
975;DHT22;6115;49.296;10.602;2022-09-13T11:58:58;23.10;56.20
975;DHT22;6115;49.296;10.602;2022-09-13T12:09:30;23.40;51.60
975;DHT22;6115;49.296;10.602;2022-09-13T12:19:53;23.80;48.20
975;DHT22;6115;49.296;10.602;2022-09-13T12:25:02;24.00;49.40
975;DHT22;6115;49.296;10.602;2022-09-13T12:35:07;24.50;48.20
975;DHT22;6115;49.296;10.602;2022-09-13T12:40:26;24.40;45.70
975;DHT22;6115;49.296;10.602;2022-09-13T13:01:49;25.20;45.00
975;DHT22;6115;49.296;10.602;2022-09-13T13:11:52;24.90;44.00
975;DHT22;6115;49.296;10.602;2022-09-13T13:17:34;24.50;44.00
975;DHT22;6115;49.296;10.602;2022-09-13T13:27:42;24.10;44.70
975;DHT22;6115;49.296;10.602;2022-09-13T13:33:10;23.90;45.20
975;DHT22;6115;49.296;10.602;2022-09-13T13:43:35;24.30;48.60
975;DHT22;6115;49.296;10.602;2022-09-13T13:48:38;24.50;47.30
975;DHT22;6115;49.296;10.602;2022-09-13T13:59:06;24.50;50.00
975;DHT22;6115;49.296;10.602;2022-09-13T14:15:02;24.10;53.20
975;DHT22;6115;49.296;10.602;2022-09-13T14:20:14;24.00;56.30
975;DHT22;6115;49.296;10.602;2022-09-13T14:30:25;24.10;57.40
975;DHT22;6115;49.296;10.602;2022-09-13T14:35:38;24.20;57.10
975;DHT22;6115;49.296;10.602;2022-09-13T14:40:39;24.40;56.10
975;DHT22;6115;49.296;10.602;2022-09-13T14:45:39;24.50;53.60
975;DHT22;6115;49.296;10.602;2022-09-13T14:50:51;24.70;52.90
975;DHT22;6115;49.296;10.602;2022-09-13T14:56:01;24.70;52.70
975;DHT22;6115;49.296;10.602;2022-09-13T15:01:06;24.70;53.40
975;DHT22;6115;49.296;10.602;2022-09-13T15:06:22;24.60;52.10
975;DHT22;6115;49.296;10.602;2022-09-13T15:11:33;24.80;54.10
975;DHT22;6115;49.296;10.602;2022-09-13T15:16:34;24.80;53.60
975;DHT22;6115;49.296;10.602;2022-09-13T15:21:35;24.50;53.70
975;DHT22;6115;49.296;10.602;2022-09-13T15:26:36;24.80;53.60
975;DHT22;6115;49.296;10.602;2022-09-13T15:31:36;24.90;54.10
975;DHT22;6115;49.296;10.602;2022-09-13T15:36:37;24.70;54.70
975;DHT22;6115;49.296;10.602;2022-09-13T15:41:39;24.60;55.40
975;DHT22;6115;49.296;10.602;2022-09-13T15:46:51;24.40;56.70
975;DHT22;6115;49.296;10.602;2022-09-13T15:51:54;24.20;57.30
975;DHT22;6115;49.296;10.602;2022-09-13T15:56:55;24.20;60.10
975;DHT22;6115;49.296;10.602;2022-09-13T16:01:56;24.00;60.70
975;DHT22;6115;49.296;10.602;2022-09-13T16:06:56;23.80;60.90
975;DHT22;6115;49.296;10.602;2022-09-13T16:11:57;23.70;60.60
975;DHT22;6115;49.296;10.602;2022-09-13T16:17:02;23.60;62.10
975;DHT22;6115;49.296;10.602;2022-09-13T16:22:04;23.50;62.40
975;DHT22;6115;49.296;10.602;2022-09-13T16:27:04;23.30;63.70
975;DHT22;6115;49.296;10.602;2022-09-13T16:32:05;23.00;63.00
975;DHT22;6115;49.296;10.602;2022-09-13T16:37:06;22.70;63.50
975;DHT22;6115;49.296;10.602;2022-09-13T16:42:06;22.60;65.50
975;DHT22;6115;49.296;10.602;2022-09-13T16:47:07;22.50;65.90
975;DHT22;6115;49.296;10.602;2022-09-13T16:52:07;22.50;66.40
975;DHT22;6115;49.296;10.602;2022-09-13T16:57:08;22.50;66.60
975;DHT22;6115;49.296;10.602;2022-09-13T17:02:10;22.30;66.40
975;DHT22;6115;49.296;10.602;2022-09-13T17:07:12;22.00;66.10
975;DHT22;6115;49.296;10.602;2022-09-13T17:12:13;21.70;68.00
975;DHT22;6115;49.296;10.602;2022-09-13T17:17:15;21.50;68.50
975;DHT22;6115;49.296;10.602;2022-09-13T17:22:15;21.50;67.70
975;DHT22;6115;49.296;10.602;2022-09-13T17:27:16;21.50;68.00
975;DHT22;6115;49.296;10.602;2022-09-13T17:32:16;21.50;69.10
975;DHT22;6115;49.296;10.602;2022-09-13T17:37:17;21.40;69.60
975;DHT22;6115;49.296;10.602;2022-09-13T17:42:18;21.40;70.00
975;DHT22;6115;49.296;10.602;2022-09-13T17:47:18;21.30;70.40
975;DHT22;6115;49.296;10.602;2022-09-13T17:52:22;21.00;68.50
975;DHT22;6115;49.296;10.602;2022-09-13T17:57:22;20.90;68.00
975;DHT22;6115;49.296;10.602;2022-09-13T18:02:23;20.80;68.20
975;DHT22;6115;49.296;10.602;2022-09-13T18:07:29;20.70;68.70
975;DHT22;6115;49.296;10.602;2022-09-13T18:12:31;20.70;69.40
975;DHT22;6115;49.296;10.602;2022-09-13T18:17:32;20.60;69.70
975;DHT22;6115;49.296;10.602;2022-09-13T18:22:32;20.50;70.70
975;DHT22;6115;49.296;10.602;2022-09-13T18:27:33;20.30;71.90
975;DHT22;6115;49.296;10.602;2022-09-13T18:32:33;20.20;72.30
975;DHT22;6115;49.296;10.602;2022-09-13T18:37:34;20.20;71.70
975;DHT22;6115;49.296;10.602;2022-09-13T18:42:34;20.10;71.40
975;DHT22;6115;49.296;10.602;2022-09-13T18:47:35;20.00;71.80
975;DHT22;6115;49.296;10.602;2022-09-13T18:52:38;20.00;72.20
975;DHT22;6115;49.296;10.602;2022-09-13T18:57:38;20.00;72.90
975;DHT22;6115;49.296;10.602;2022-09-13T19:02:38;19.90;73.60
975;DHT22;6115;49.296;10.602;2022-09-13T19:07:39;19.80;74.00
975;DHT22;6115;49.296;10.602;2022-09-13T19:12:42;19.70;74.30
975;DHT22;6115;49.296;10.602;2022-09-13T19:17:42;19.70;74.30
975;DHT22;6115;49.296;10.602;2022-09-13T19:22:44;19.70;74.40
975;DHT22;6115;49.296;10.602;2022-09-13T19:27:44;19.60;74.30
975;DHT22;6115;49.296;10.602;2022-09-13T19:32:45;19.60;74.00
975;DHT22;6115;49.296;10.602;2022-09-13T19:37:45;19.50;74.20
975;DHT22;6115;49.296;10.602;2022-09-13T19:42:46;19.30;74.50
975;DHT22;6115;49.296;10.602;2022-09-13T19:47:46;19.20;75.50
975;DHT22;6115;49.296;10.602;2022-09-13T19:52:47;19.20;74.70
975;DHT22;6115;49.296;10.602;2022-09-13T19:57:49;19.10;75.00
975;DHT22;6115;49.296;10.602;2022-09-13T20:02:49;19.00;75.40
975;DHT22;6115;49.296;10.602;2022-09-13T20:07:50;18.90;75.60
975;DHT22;6115;49.296;10.602;2022-09-13T20:12:50;18.90;76.00
975;DHT22;6115;49.296;10.602;2022-09-13T20:17:53;18.80;76.30
975;DHT22;6115;49.296;10.602;2022-09-13T20:22:54;18.70;77.20
975;DHT22;6115;49.296;10.602;2022-09-13T20:27:54;18.70;76.80
975;DHT22;6115;49.296;10.602;2022-09-13T20:32:55;18.60;76.90
975;DHT22;6115;49.296;10.602;2022-09-13T20:37:55;18.60;77.60
975;DHT22;6115;49.296;10.602;2022-09-13T20:42:56;18.60;77.70
975;DHT22;6115;49.296;10.602;2022-09-13T20:47:56;18.60;77.70
975;DHT22;6115;49.296;10.602;2022-09-13T20:52:57;18.50;77.60
975;DHT22;6115;49.296;10.602;2022-09-13T20:57:57;18.50;77.60
975;DHT22;6115;49.296;10.602;2022-09-13T21:03:00;18.50;77.60
975;DHT22;6115;49.296;10.602;2022-09-13T21:08:00;18.40;77.50
975;DHT22;6115;49.296;10.602;2022-09-13T21:13:20;18.30;77.40
975;DHT22;6115;49.296;10.602;2022-09-13T21:18:20;18.20;77.80
975;DHT22;6115;49.296;10.602;2022-09-13T21:23:21;18.20;78.20
975;DHT22;6115;49.296;10.602;2022-09-13T21:28:22;18.10;78.50
975;DHT22;6115;49.296;10.602;2022-09-13T21:33:22;18.10;79.40
975;DHT22;6115;49.296;10.602;2022-09-13T21:38:25;18.20;78.80
975;DHT22;6115;49.296;10.602;2022-09-13T21:43:26;18.10;78.60
975;DHT22;6115;49.296;10.602;2022-09-13T21:48:28;18.10;78.90
975;DHT22;6115;49.296;10.602;2022-09-13T21:53:35;18.10;79.00
975;DHT22;6115;49.296;10.602;2022-09-13T21:58:36;18.10;79.00
975;DHT22;6115;49.296;10.602;2022-09-13T22:03:39;18.10;79.00
975;DHT22;6115;49.296;10.602;2022-09-13T22:08:48;18.10;79.20
975;DHT22;6115;49.296;10.602;2022-09-13T22:13:49;18.20;80.20
975;DHT22;6115;49.296;10.602;2022-09-13T22:18:53;18.20;79.40
975;DHT22;6115;49.296;10.602;2022-09-13T22:23:54;18.20;79.60
975;DHT22;6115;49.296;10.602;2022-09-13T22:28:55;18.10;79.80
975;DHT22;6115;49.296;10.602;2022-09-13T22:33:59;18.00;80.00
975;DHT22;6115;49.296;10.602;2022-09-13T22:38:59;18.00;80.10
975;DHT22;6115;49.296;10.602;2022-09-13T22:44:01;18.00;80.30
975;DHT22;6115;49.296;10.602;2022-09-13T22:49:03;18.10;80.30
975;DHT22;6115;49.296;10.602;2022-09-13T22:54:04;18.10;80.30
975;DHT22;6115;49.296;10.602;2022-09-13T22:59:07;18.00;80.20
975;DHT22;6115;49.296;10.602;2022-09-13T23:04:08;18.00;80.30
975;DHT22;6115;49.296;10.602;2022-09-13T23:09:12;18.10;80.30
975;DHT22;6115;49.296;10.602;2022-09-13T23:14:15;18.00;80.40
975;DHT22;6115;49.296;10.602;2022-09-13T23:19:18;18.10;80.50
975;DHT22;6115;49.296;10.602;2022-09-13T23:24:19;18.10;80.50
975;DHT22;6115;49.296;10.602;2022-09-13T23:29:19;18.00;80.50
975;DHT22;6115;49.296;10.602;2022-09-13T23:34:20;18.00;80.70
975;DHT22;6115;49.296;10.602;2022-09-13T23:39:20;17.80;81.00
975;DHT22;6115;49.296;10.602;2022-09-13T23:44:21;17.80;81.30
975;DHT22;6115;49.296;10.602;2022-09-13T23:49:21;17.70;81.60
975;DHT22;6115;49.296;10.602;2022-09-13T23:54:22;17.70;81.60
975;DHT22;6115;49.296;10.602;2022-09-13T23:59:22;17.90;81.90
